createdAt,value
2018-11-04T00:03:10.925Z,8.28
2018-11-04T00:08:13.357Z,8.29
2018-11-04T00:13:15.812Z,8.27
2018-11-04T00:18:18.057Z,8.31
2018-11-04T00:23:20.347Z,8.33
2018-11-04T00:28:22.643Z,8.32
2018-11-04T00:33:25.062Z,8.34
2018-11-04T00:38:27.424Z,8.36
2018-11-04T00:43:29.890Z,8.38
2018-11-04T00:48:32.545Z,8.39
2018-11-04T00:53:34.935Z,8.40
2018-11-04T00:58:37.315Z,8.40
2018-11-04T01:03:39.726Z,8.39
2018-11-04T01:08:42.103Z,8.38
2018-11-04T01:13:44.668Z,8.39
2018-11-04T01:18:47.070Z,8.36
2018-11-04T01:23:49.447Z,8.34
2018-11-04T01:28:51.850Z,8.35
2018-11-04T01:33:54.206Z,8.32
2018-11-04T01:38:56.592Z,8.31
2018-11-04T01:43:58.930Z,8.32
2018-11-04T01:49:01.225Z,8.29
2018-11-04T01:54:04.253Z,8.26
2018-11-04T01:59:07.705Z,8.23
2018-11-04T02:04:10.093Z,8.22
2018-11-04T02:09:12.748Z,8.20
2018-11-04T02:14:15.089Z,8.22
2018-11-04T02:19:17.383Z,8.25
2018-11-04T02:24:19.741Z,8.23
2018-11-04T02:29:22.022Z,8.22
2018-11-04T02:34:24.382Z,8.20
2018-11-04T02:39:26.697Z,8.21
2018-11-04T02:44:29.113Z,8.21
2018-11-04T02:49:31.428Z,8.25
2018-11-04T02:54:33.738Z,8.19
2018-11-04T02:59:36.131Z,8.17
2018-11-04T03:04:38.491Z,8.19
2018-11-04T03:09:40.858Z,8.21
2018-11-04T03:14:43.234Z,8.21
2018-11-04T03:19:45.558Z,8.24
2018-11-04T03:24:47.998Z,8.25
2018-11-04T03:29:50.214Z,8.23
2018-11-04T03:34:52.549Z,8.22
2018-11-04T03:39:54.828Z,8.20
2018-11-04T03:44:57.232Z,8.20
2018-11-04T03:49:59.643Z,8.14
2018-11-04T03:55:01.937Z,8.12
2018-11-04T04:00:05.362Z,8.13
2018-11-04T04:05:08.560Z,8.13
2018-11-04T04:10:10.865Z,8.08
2018-11-04T04:15:13.225Z,8.05
2018-11-04T04:20:15.530Z,8.05
2018-11-04T04:25:17.893Z,8.04
2018-11-04T04:30:20.532Z,8.03
2018-11-04T04:35:22.869Z,8.01
2018-11-04T04:40:25.162Z,8.00
2018-11-04T04:45:27.517Z,8.00
2018-11-04T04:50:29.821Z,7.96
2018-11-04T04:55:32.232Z,7.90
2018-11-04T05:00:34.752Z,7.90
2018-11-04T05:05:37.059Z,7.93
2018-11-04T05:10:39.368Z,7.96
2018-11-04T05:15:41.812Z,8.02
2018-11-04T05:20:44.115Z,8.03
2018-11-04T05:25:46.435Z,8.03
2018-11-04T05:30:49.019Z,8.04
2018-11-04T05:35:51.372Z,8.03
2018-11-04T05:40:53.675Z,8.03
2018-11-04T05:45:56.051Z,8.02
2018-11-04T05:50:58.352Z,8.04
2018-11-04T05:56:00.692Z,8.04
2018-11-04T06:01:03.191Z,8.04
2018-11-04T06:06:05.528Z,8.08
2018-11-04T06:11:07.818Z,8.10
2018-11-04T06:16:10.240Z,8.09
2018-11-04T06:21:12.559Z,8.10
2018-11-04T06:26:14.864Z,8.11
2018-11-04T06:31:17.196Z,8.16
2018-11-04T06:36:19.691Z,8.27
2018-11-04T06:41:22.096Z,8.26
2018-11-04T06:46:24.442Z,8.26
2018-11-04T06:51:26.744Z,8.26
2018-11-04T06:56:29.039Z,8.31
2018-11-04T07:01:31.345Z,8.33
2018-11-04T07:06:33.648Z,8.38
2018-11-04T07:11:36.117Z,8.45
2018-11-04T07:16:38.471Z,8.51
2018-11-04T07:21:40.808Z,8.50
2018-11-04T07:26:43.409Z,8.58
2018-11-04T07:31:45.904Z,8.64
2018-11-04T07:36:48.215Z,8.64
2018-11-04T07:41:50.514Z,8.71
2018-11-04T07:46:52.974Z,8.77
2018-11-04T07:51:55.804Z,8.74
2018-11-04T07:56:58.147Z,8.80
2018-11-04T08:02:00.692Z,8.84
2018-11-04T08:07:03.316Z,8.86
2018-11-04T08:12:05.641Z,8.85
2018-11-04T08:17:08.042Z,8.95
2018-11-04T08:22:10.345Z,8.99
2018-11-04T08:27:12.687Z,8.96
2018-11-04T08:32:15.027Z,9.03
2018-11-04T08:37:17.333Z,9.11
2018-11-04T08:42:19.835Z,9.19
2018-11-04T08:47:22.277Z,9.25
2018-11-04T08:52:24.656Z,9.29
2018-11-04T08:57:26.929Z,9.36
2018-11-04T09:02:29.224Z,9.38
2018-11-04T09:07:31.552Z,9.44
2018-11-04T09:12:33.872Z,9.57
2018-11-04T09:17:36.303Z,9.63
2018-11-04T09:22:39.076Z,9.71
2018-11-04T09:27:41.397Z,9.76
2018-11-04T09:32:44.451Z,9.86
2018-11-04T09:37:46.780Z,9.92
2018-11-04T09:42:49.102Z,10.05
2018-11-04T09:47:51.432Z,10.13
2018-11-04T09:52:53.804Z,10.22
2018-11-04T09:57:56.106Z,10.24
2018-11-04T10:02:58.427Z,10.37
2018-11-04T10:08:00.747Z,10.42
2018-11-04T10:13:03.130Z,10.51
2018-11-04T10:18:05.476Z,10.51
2018-11-04T10:23:07.785Z,10.61
2018-11-04T10:28:10.199Z,10.59
2018-11-04T10:33:12.513Z,10.64
2018-11-04T10:38:14.841Z,10.63
2018-11-04T10:43:17.222Z,10.71
2018-11-04T10:48:19.598Z,10.73
2018-11-04T10:53:21.939Z,10.79
2018-11-04T10:58:24.347Z,10.86
2018-11-04T11:03:26.715Z,10.83
2018-11-04T11:08:29.074Z,10.79
2018-11-04T11:13:31.394Z,10.83
2018-11-04T11:18:33.743Z,10.81
2018-11-04T11:23:36.038Z,10.88
2018-11-04T11:28:38.772Z,10.95
2018-11-04T11:33:41.099Z,11.00
2018-11-04T11:38:43.640Z,11.02
2018-11-04T11:43:46.097Z,11.08
2018-11-04T11:48:48.492Z,11.12
2018-11-04T11:53:50.795Z,11.17
2018-11-04T11:58:53.193Z,11.29
2018-11-04T12:03:56.812Z,11.35
2018-11-04T12:08:59.208Z,11.39
2018-11-04T12:14:02.072Z,11.45
2018-11-04T12:19:04.467Z,11.48
2018-11-04T12:24:06.948Z,11.39
2018-11-04T12:29:09.278Z,11.43
2018-11-04T12:34:11.603Z,11.39
2018-11-04T12:39:13.951Z,11.42
2018-11-04T12:44:16.494Z,11.47
2018-11-04T12:49:19.374Z,11.51
2018-11-04T12:54:21.672Z,11.51
2018-11-04T12:59:23.980Z,11.52
2018-11-04T13:04:26.271Z,11.48
2018-11-04T13:09:28.761Z,11.46
2018-11-04T13:14:31.092Z,11.44
2018-11-04T13:19:33.472Z,11.43
2018-11-04T13:24:35.928Z,11.42
2018-11-04T13:29:38.233Z,11.39
2018-11-04T13:34:40.644Z,11.49
2018-11-04T13:39:42.976Z,11.44
2018-11-04T13:44:45.306Z,11.45
2018-11-04T13:49:47.667Z,11.48
2018-11-04T13:54:49.980Z,11.36
2018-11-04T13:59:52.279Z,11.31
2018-11-04T14:04:54.579Z,11.21
2018-11-04T14:09:56.967Z,11.19
2018-11-04T14:14:59.337Z,11.19
2018-11-04T14:20:02.747Z,11.22
2018-11-04T14:25:05.980Z,11.16
2018-11-04T14:30:11.507Z,11.16
2018-11-04T14:35:13.863Z,11.16
2018-11-04T14:40:16.172Z,11.13
2018-11-04T14:45:18.484Z,11.14
2018-11-04T14:50:20.876Z,11.15
2018-11-04T14:55:23.272Z,11.01
2018-11-04T15:00:25.689Z,10.93
2018-11-04T15:05:28.113Z,10.90
2018-11-04T15:10:30.571Z,10.83
2018-11-04T15:15:33.019Z,10.80
2018-11-04T15:20:35.534Z,10.72
2018-11-04T15:25:37.864Z,10.65
2018-11-04T15:30:40.205Z,10.57
2018-11-04T15:35:42.588Z,10.51
2018-11-04T15:40:45.032Z,10.47
2018-11-04T15:45:47.823Z,10.40
2018-11-04T15:50:50.403Z,10.36
2018-11-04T15:55:52.848Z,10.37
2018-11-04T16:00:55.254Z,10.30
2018-11-04T16:05:57.678Z,10.23
2018-11-04T16:10:59.940Z,10.23
2018-11-04T16:16:02.329Z,10.22
2018-11-04T16:21:04.843Z,10.20
2018-11-04T16:26:07.184Z,10.17
2018-11-04T16:31:09.700Z,10.15
2018-11-04T16:36:12.224Z,10.13
2018-11-04T16:41:14.599Z,10.12
2018-11-04T16:46:16.928Z,10.13
2018-11-04T16:51:19.275Z,10.14
2018-11-04T16:56:21.689Z,10.12
2018-11-04T17:01:24.763Z,10.10
2018-11-04T17:06:27.141Z,10.10
2018-11-04T17:11:29.545Z,10.05
2018-11-04T17:16:31.872Z,10.05
2018-11-04T17:21:34.247Z,10.03
2018-11-04T17:26:36.576Z,10.02
2018-11-04T17:31:38.907Z,9.99
2018-11-04T17:36:41.306Z,9.98
2018-11-04T17:41:43.613Z,9.97
2018-11-04T17:46:45.900Z,9.96
2018-11-04T17:51:48.581Z,9.95
2018-11-04T17:56:51.086Z,9.94
2018-11-04T18:01:53.400Z,9.97
2018-11-04T18:06:55.776Z,9.94
2018-11-04T18:11:58.076Z,9.95
2018-11-04T18:17:00.357Z,9.93
2018-11-04T18:22:02.741Z,9.92
2018-11-04T18:27:05.121Z,9.97
2018-11-04T18:32:08.094Z,9.95
2018-11-04T18:37:10.352Z,9.96
2018-11-04T18:42:13.085Z,9.95
2018-11-04T18:47:15.555Z,9.91
2018-11-04T18:52:18.077Z,9.93
2018-11-04T18:57:20.314Z,9.90
2018-11-04T19:02:22.669Z,9.91
2018-11-04T19:07:25.079Z,9.92
2018-11-04T19:12:28.683Z,9.95
2018-11-04T19:17:31.076Z,9.97
2018-11-04T19:22:33.503Z,9.99
2018-11-04T19:27:35.913Z,10.03
2018-11-04T19:32:39.724Z,10.04
2018-11-04T19:37:42.092Z,10.05
2018-11-04T19:42:44.463Z,9.95
2018-11-04T19:47:46.728Z,9.99
2018-11-04T19:52:49.261Z,9.96
2018-11-04T19:57:51.567Z,9.93
2018-11-04T20:02:53.884Z,9.97
2018-11-04T20:07:56.199Z,9.94
2018-11-04T20:13:04.262Z,9.93
2018-11-04T20:18:12.446Z,9.93
2018-11-04T20:23:14.795Z,10.01
2018-11-04T20:28:17.080Z,10.05
2018-11-04T20:33:19.507Z,10.04
2018-11-04T20:38:27.679Z,10.03
2018-11-04T20:43:30.034Z,10.01
2018-11-04T20:48:38.132Z,9.97
2018-11-04T20:53:40.503Z,9.99
2018-11-04T20:58:42.815Z,10.03
2018-11-04T21:03:45.171Z,10.08
2018-11-04T21:08:47.459Z,10.10
2018-11-04T21:13:49.788Z,10.14
2018-11-04T21:18:52.069Z,10.18
2018-11-04T21:23:54.432Z,10.20
2018-11-04T21:28:57.100Z,10.25
2018-11-04T21:33:59.381Z,10.30
2018-11-04T21:39:01.693Z,10.31
2018-11-04T21:44:04.184Z,10.32
2018-11-04T21:49:06.354Z,10.30
2018-11-04T21:54:08.781Z,10.32
2018-11-04T21:59:11.077Z,10.34
2018-11-04T22:04:13.558Z,10.38
2018-11-04T22:09:15.859Z,10.38
2018-11-04T22:14:18.161Z,10.37
2018-11-04T22:19:20.524Z,10.38
2018-11-04T22:24:22.996Z,10.40
2018-11-04T22:29:25.279Z,10.42
2018-11-04T22:34:27.597Z,10.42
2018-11-04T22:39:29.971Z,10.42
2018-11-04T22:44:32.275Z,10.45
2018-11-04T22:49:34.557Z,10.49
2018-11-04T22:54:36.928Z,10.50
2018-11-04T22:59:39.235Z,10.48
2018-11-04T23:04:47.253Z,10.49
2018-11-04T23:09:49.576Z,10.53
2018-11-04T23:14:51.873Z,10.52
2018-11-04T23:19:54.210Z,10.53
2018-11-04T23:24:56.541Z,10.51
2018-11-04T23:29:58.851Z,10.52
2018-11-04T23:35:01.178Z,10.55
2018-11-04T23:40:03.560Z,10.50
2018-11-04T23:45:07.003Z,10.50
2018-11-04T23:50:12.429Z,10.52
2018-11-04T23:55:15.211Z,10.50
